sensor_id;sensor_type;location;lat;lon;timestamp;P1;durP1;ratioP1;P2;durP2;ratioP2
76900;SDS011;65859;43.020;25.096;2022-12-28T00:03:43;6.07;;;4.00;;
76900;SDS011;65859;43.020;25.096;2022-12-28T00:06:10;5.40;;;3.90;;
76900;SDS011;65859;43.020;25.096;2022-12-28T00:08:37;6.05;;;4.28;;
76900;SDS011;65859;43.020;25.096;2022-12-28T00:11:10;5.05;;;4.03;;
76900;SDS011;65859;43.020;25.096;2022-12-28T00:13:38;5.97;;;4.03;;
76900;SDS011;65859;43.020;25.096;2022-12-28T00:16:26;6.88;;;3.83;;
76900;SDS011;65859;43.020;25.096;2022-12-28T00:19:00;5.15;;;3.80;;
76900;SDS011;65859;43.020;25.096;2022-12-28T00:21:29;6.07;;;4.68;;
76900;SDS011;65859;43.020;25.096;2022-12-28T00:23:56;5.45;;;4.47;;
76900;SDS011;65859;43.020;25.096;2022-12-28T00:26:24;5.70;;;3.90;;
76900;SDS011;65859;43.020;25.096;2022-12-28T00:28:52;6.10;;;4.35;;
76900;SDS011;65859;43.020;25.096;2022-12-28T00:31:18;5.45;;;3.97;;
76900;SDS011;65859;43.020;25.096;2022-12-28T00:33:45;4.68;;;3.90;;
76900;SDS011;65859;43.020;25.096;2022-12-28T00:36:12;5.47;;;3.80;;
76900;SDS011;65859;43.020;25.096;2022-12-28T00:38:39;6.90;;;4.57;;
76900;SDS011;65859;43.020;25.096;2022-12-28T00:41:06;5.63;;;3.70;;
76900;SDS011;65859;43.020;25.096;2022-12-28T00:43:33;5.40;;;3.38;;
76900;SDS011;65859;43.020;25.096;2022-12-28T00:46:00;6.20;;;4.20;;
76900;SDS011;65859;43.020;25.096;2022-12-28T00:48:26;4.03;;;3.53;;
76900;SDS011;65859;43.020;25.096;2022-12-28T00:51:02;6.10;;;3.70;;
76900;SDS011;65859;43.020;25.096;2022-12-28T00:53:29;5.13;;;3.97;;
76900;SDS011;65859;43.020;25.096;2022-12-28T00:56:02;4.97;;;3.95;;
76900;SDS011;65859;43.020;25.096;2022-12-28T00:58:30;7.18;;;4.13;;
76900;SDS011;65859;43.020;25.096;2022-12-28T01:00:57;4.90;;;4.10;;
76900;SDS011;65859;43.020;25.096;2022-12-28T01:03:23;7.00;;;4.60;;
76900;SDS011;65859;43.020;25.096;2022-12-28T01:05:50;5.95;;;4.15;;
76900;SDS011;65859;43.020;25.096;2022-12-28T01:08:16;6.82;;;4.68;;
76900;SDS011;65859;43.020;25.096;2022-12-28T01:10:42;6.72;;;4.13;;
76900;SDS011;65859;43.020;25.096;2022-12-28T01:13:09;4.72;;;4.05;;
76900;SDS011;65859;43.020;25.096;2022-12-28T01:15:36;6.93;;;4.57;;
76900;SDS011;65859;43.020;25.096;2022-12-28T01:18:03;5.30;;;4.25;;
76900;SDS011;65859;43.020;25.096;2022-12-28T01:20:30;6.82;;;4.38;;
76900;SDS011;65859;43.020;25.096;2022-12-28T01:22:57;7.07;;;5.03;;
76900;SDS011;65859;43.020;25.096;2022-12-28T01:25:23;5.93;;;4.40;;
76900;SDS011;65859;43.020;25.096;2022-12-28T01:27:50;9.52;;;6.25;;
76900;SDS011;65859;43.020;25.096;2022-12-28T01:30:16;10.82;;;5.45;;
76900;SDS011;65859;43.020;25.096;2022-12-28T01:32:42;6.50;;;4.35;;
76900;SDS011;65859;43.020;25.096;2022-12-28T01:35:09;9.15;;;4.88;;
76900;SDS011;65859;43.020;25.096;2022-12-28T01:37:35;6.65;;;4.88;;
76900;SDS011;65859;43.020;25.096;2022-12-28T01:40:02;5.53;;;3.97;;
76900;SDS011;65859;43.020;25.096;2022-12-28T01:42:29;6.45;;;4.75;;
76900;SDS011;65859;43.020;25.096;2022-12-28T01:44:55;6.55;;;4.88;;
76900;SDS011;65859;43.020;25.096;2022-12-28T01:47:29;6.38;;;5.05;;
76900;SDS011;65859;43.020;25.096;2022-12-28T01:50:01;7.65;;;5.50;;
76900;SDS011;65859;43.020;25.096;2022-12-28T01:52:40;7.72;;;5.03;;
76900;SDS011;65859;43.020;25.096;2022-12-28T01:55:20;6.88;;;4.88;;
76900;SDS011;65859;43.020;25.096;2022-12-28T01:57:54;6.28;;;4.72;;
76900;SDS011;65859;43.020;25.096;2022-12-28T02:00:27;6.60;;;4.65;;
76900;SDS011;65859;43.020;25.096;2022-12-28T02:02:58;5.70;;;4.20;;
76900;SDS011;65859;43.020;25.096;2022-12-28T02:05:32;5.20;;;4.15;;
76900;SDS011;65859;43.020;25.096;2022-12-28T02:08:05;5.50;;;4.57;;
76900;SDS011;65859;43.020;25.096;2022-12-28T02:10:35;6.10;;;4.55;;
76900;SDS011;65859;43.020;25.096;2022-12-28T02:13:03;6.55;;;4.47;;
76900;SDS011;65859;43.020;25.096;2022-12-28T02:15:30;8.23;;;5.03;;
76900;SDS011;65859;43.020;25.096;2022-12-28T02:17:56;7.90;;;5.63;;
76900;SDS011;65859;43.020;25.096;2022-12-28T02:20:25;7.35;;;5.32;;
76900;SDS011;65859;43.020;25.096;2022-12-28T02:25:56;7.43;;;5.88;;
76900;SDS011;65859;43.020;25.096;2022-12-28T02:31:11;8.30;;;6.15;;
76900;SDS011;65859;43.020;25.096;2022-12-28T02:33:49;32.25;;;16.52;;
76900;SDS011;65859;43.020;25.096;2022-12-28T02:36:27;15.32;;;8.43;;
76900;SDS011;65859;43.020;25.096;2022-12-28T02:39:05;10.63;;;6.47;;
76900;SDS011;65859;43.020;25.096;2022-12-28T02:41:37;7.57;;;5.82;;
76900;SDS011;65859;43.020;25.096;2022-12-28T02:44:05;9.40;;;6.40;;
76900;SDS011;65859;43.020;25.096;2022-12-28T02:46:32;8.43;;;5.60;;
76900;SDS011;65859;43.020;25.096;2022-12-28T02:49:18;8.15;;;5.57;;
76900;SDS011;65859;43.020;25.096;2022-12-28T02:54:56;10.68;;;6.85;;
76900;SDS011;65859;43.020;25.096;2022-12-28T03:01:04;9.27;;;6.47;;
76900;SDS011;65859;43.020;25.096;2022-12-28T03:15:14;8.57;;;4.57;;
76900;SDS011;65859;43.020;25.096;2022-12-28T03:17:55;9.93;;;5.95;;
76900;SDS011;65859;43.020;25.096;2022-12-28T03:20:53;7.68;;;5.28;;
76900;SDS011;65859;43.020;25.096;2022-12-28T03:23:40;8.30;;;6.00;;
76900;SDS011;65859;43.020;25.096;2022-12-28T03:26:28;8.35;;;5.65;;
76900;SDS011;65859;43.020;25.096;2022-12-28T03:29:17;8.80;;;6.15;;
76900;SDS011;65859;43.020;25.096;2022-12-28T03:32:05;11.60;;;7.72;;
76900;SDS011;65859;43.020;25.096;2022-12-28T03:34:32;16.95;;;10.10;;
76900;SDS011;65859;43.020;25.096;2022-12-28T03:37:01;11.00;;;7.20;;
76900;SDS011;65859;43.020;25.096;2022-12-28T03:45:11;11.02;;;7.50;;
76900;SDS011;65859;43.020;25.096;2022-12-28T03:47:50;11.18;;;7.80;;
76900;SDS011;65859;43.020;25.096;2022-12-28T03:50:18;9.75;;;6.10;;
76900;SDS011;65859;43.020;25.096;2022-12-28T03:52:45;8.27;;;5.75;;
76900;SDS011;65859;43.020;25.096;2022-12-28T03:55:12;5.60;;;4.60;;
76900;SDS011;65859;43.020;25.096;2022-12-28T03:57:40;8.38;;;5.40;;
76900;SDS011;65859;43.020;25.096;2022-12-28T04:00:08;5.60;;;4.60;;
76900;SDS011;65859;43.020;25.096;2022-12-28T04:02:35;6.35;;;4.63;;
76900;SDS011;65859;43.020;25.096;2022-12-28T04:05:02;6.50;;;5.28;;
76900;SDS011;65859;43.020;25.096;2022-12-28T04:07:29;8.45;;;5.60;;
76900;SDS011;65859;43.020;25.096;2022-12-28T04:09:56;8.07;;;6.22;;
76900;SDS011;65859;43.020;25.096;2022-12-28T04:12:22;7.05;;;5.70;;
76900;SDS011;65859;43.020;25.096;2022-12-28T04:14:48;14.55;;;8.25;;
76900;SDS011;65859;43.020;25.096;2022-12-28T04:17:15;21.83;;;12.80;;
76900;SDS011;65859;43.020;25.096;2022-12-28T04:19:41;24.02;;;14.57;;
76900;SDS011;65859;43.020;25.096;2022-12-28T04:22:07;9.95;;;6.72;;
76900;SDS011;65859;43.020;25.096;2022-12-28T04:24:33;10.00;;;6.53;;
76900;SDS011;65859;43.020;25.096;2022-12-28T04:27:00;10.00;;;6.70;;
76900;SDS011;65859;43.020;25.096;2022-12-28T04:29:26;8.63;;;5.75;;
76900;SDS011;65859;43.020;25.096;2022-12-28T04:31:53;8.43;;;6.20;;
76900;SDS011;65859;43.020;25.096;2022-12-28T04:34:20;12.35;;;6.88;;
76900;SDS011;65859;43.020;25.096;2022-12-28T04:36:46;9.57;;;6.00;;
76900;SDS011;65859;43.020;25.096;2022-12-28T04:39:12;6.57;;;5.72;;
76900;SDS011;65859;43.020;25.096;2022-12-28T04:41:39;8.35;;;6.43;;
76900;SDS011;65859;43.020;25.096;2022-12-28T04:44:05;7.78;;;6.30;;
76900;SDS011;65859;43.020;25.096;2022-12-28T04:46:32;20.65;;;11.88;;
76900;SDS011;65859;43.020;25.096;2022-12-28T04:48:58;15.70;;;9.63;;
76900;SDS011;65859;43.020;25.096;2022-12-28T04:51:25;10.68;;;7.05;;
76900;SDS011;65859;43.020;25.096;2022-12-28T04:53:53;11.70;;;7.65;;
76900;SDS011;65859;43.020;25.096;2022-12-28T04:56:21;11.77;;;7.30;;
76900;SDS011;65859;43.020;25.096;2022-12-28T04:58:52;13.27;;;7.93;;
76900;SDS011;65859;43.020;25.096;2022-12-28T05:01:19;22.02;;;12.98;;
76900;SDS011;65859;43.020;25.096;2022-12-28T05:03:47;11.38;;;7.53;;
76900;SDS011;65859;43.020;25.096;2022-12-28T05:06:15;13.63;;;9.75;;
76900;SDS011;65859;43.020;25.096;2022-12-28T05:08:43;16.67;;;9.10;;
76900;SDS011;65859;43.020;25.096;2022-12-28T05:11:14;19.48;;;13.80;;
76900;SDS011;65859;43.020;25.096;2022-12-28T05:13:42;33.63;;;22.23;;
76900;SDS011;65859;43.020;25.096;2022-12-28T05:16:10;25.20;;;15.50;;
76900;SDS011;65859;43.020;25.096;2022-12-28T05:18:38;25.45;;;15.68;;
76900;SDS011;65859;43.020;25.096;2022-12-28T05:21:09;30.13;;;21.27;;
76900;SDS011;65859;43.020;25.096;2022-12-28T05:23:37;49.25;;;28.50;;
76900;SDS011;65859;43.020;25.096;2022-12-28T05:26:05;38.53;;;23.27;;
76900;SDS011;65859;43.020;25.096;2022-12-28T05:28:33;38.58;;;22.15;;
76900;SDS011;65859;43.020;25.096;2022-12-28T05:31:00;94.45;;;56.65;;
76900;SDS011;65859;43.020;25.096;2022-12-28T05:33:28;76.15;;;39.92;;
76900;SDS011;65859;43.020;25.096;2022-12-28T05:36:01;160.10;;;88.53;;
76900;SDS011;65859;43.020;25.096;2022-12-28T05:38:29;237.60;;;135.40;;
76900;SDS011;65859;43.020;25.096;2022-12-28T05:40:55;103.40;;;55.70;;
76900;SDS011;65859;43.020;25.096;2022-12-28T05:43:28;35.67;;;21.33;;
76900;SDS011;65859;43.020;25.096;2022-12-28T05:45:58;32.72;;;19.55;;
76900;SDS011;65859;43.020;25.096;2022-12-28T05:48:29;31.10;;;18.38;;
76900;SDS011;65859;43.020;25.096;2022-12-28T05:51:00;32.65;;;18.02;;
76900;SDS011;65859;43.020;25.096;2022-12-28T05:53:29;32.22;;;19.73;;
76900;SDS011;65859;43.020;25.096;2022-12-28T05:55:59;69.35;;;48.10;;
76900;SDS011;65859;43.020;25.096;2022-12-28T05:58:26;81.15;;;56.00;;
76900;SDS011;65859;43.020;25.096;2022-12-28T06:00:53;81.95;;;55.25;;
76900;SDS011;65859;43.020;25.096;2022-12-28T06:03:27;91.55;;;53.42;;
76900;SDS011;65859;43.020;25.096;2022-12-28T06:05:54;61.78;;;34.75;;
76900;SDS011;65859;43.020;25.096;2022-12-28T06:08:21;71.03;;;40.22;;
76900;SDS011;65859;43.020;25.096;2022-12-28T06:10:47;61.35;;;36.50;;
76900;SDS011;65859;43.020;25.096;2022-12-28T06:13:14;68.97;;;40.53;;
76900;SDS011;65859;43.020;25.096;2022-12-28T06:15:40;73.88;;;42.35;;
76900;SDS011;65859;43.020;25.096;2022-12-28T06:18:06;77.80;;;39.83;;
76900;SDS011;65859;43.020;25.096;2022-12-28T06:20:33;79.13;;;37.08;;
76900;SDS011;65859;43.020;25.096;2022-12-28T06:22:59;59.53;;;32.33;;
76900;SDS011;65859;43.020;25.096;2022-12-28T06:25:25;62.55;;;31.52;;
76900;SDS011;65859;43.020;25.096;2022-12-28T06:27:52;51.05;;;30.65;;
76900;SDS011;65859;43.020;25.096;2022-12-28T06:30:18;56.70;;;32.10;;
76900;SDS011;65859;43.020;25.096;2022-12-28T06:32:44;57.33;;;30.13;;
76900;SDS011;65859;43.020;25.096;2022-12-28T06:35:11;48.35;;;25.00;;
76900;SDS011;65859;43.020;25.096;2022-12-28T06:37:37;43.28;;;22.90;;
76900;SDS011;65859;43.020;25.096;2022-12-28T06:40:05;40.58;;;21.55;;
76900;SDS011;65859;43.020;25.096;2022-12-28T06:42:31;54.50;;;31.42;;
76900;SDS011;65859;43.020;25.096;2022-12-28T06:44:58;50.65;;;27.85;;
76900;SDS011;65859;43.020;25.096;2022-12-28T06:47:24;70.63;;;44.03;;
76900;SDS011;65859;43.020;25.096;2022-12-28T06:49:50;77.35;;;44.53;;
76900;SDS011;65859;43.020;25.096;2022-12-28T06:52:17;91.57;;;48.00;;
76900;SDS011;65859;43.020;25.096;2022-12-28T06:54:43;85.35;;;50.75;;
76900;SDS011;65859;43.020;25.096;2022-12-28T06:57:09;78.15;;;49.33;;
76900;SDS011;65859;43.020;25.096;2022-12-28T06:59:36;91.47;;;59.33;;
76900;SDS011;65859;43.020;25.096;2022-12-28T07:02:02;105.05;;;59.50;;
76900;SDS011;65859;43.020;25.096;2022-12-28T07:04:28;104.65;;;59.70;;
76900;SDS011;65859;43.020;25.096;2022-12-28T07:06:55;86.18;;;42.97;;
76900;SDS011;65859;43.020;25.096;2022-12-28T07:09:21;59.08;;;35.38;;
76900;SDS011;65859;43.020;25.096;2022-12-28T07:11:49;54.58;;;31.75;;
76900;SDS011;65859;43.020;25.096;2022-12-28T07:14:15;57.47;;;33.30;;
76900;SDS011;65859;43.020;25.096;2022-12-28T07:16:43;59.83;;;35.75;;
76900;SDS011;65859;43.020;25.096;2022-12-28T07:19:09;56.55;;;35.25;;
76900;SDS011;65859;43.020;25.096;2022-12-28T07:21:37;63.15;;;37.03;;
76900;SDS011;65859;43.020;25.096;2022-12-28T07:24:04;66.78;;;34.92;;
76900;SDS011;65859;43.020;25.096;2022-12-28T07:26:32;56.47;;;29.55;;
76900;SDS011;65859;43.020;25.096;2022-12-28T07:29:00;49.50;;;27.25;;
76900;SDS011;65859;43.020;25.096;2022-12-28T07:31:29;36.95;;;18.40;;
76900;SDS011;65859;43.020;25.096;2022-12-28T07:33:58;32.35;;;18.52;;
76900;SDS011;65859;43.020;25.096;2022-12-28T07:36:26;34.63;;;18.33;;
76900;SDS011;65859;43.020;25.096;2022-12-28T07:38:54;26.15;;;14.35;;
76900;SDS011;65859;43.020;25.096;2022-12-28T07:41:21;23.92;;;13.40;;
76900;SDS011;65859;43.020;25.096;2022-12-28T07:43:51;28.42;;;14.45;;
76900;SDS011;65859;43.020;25.096;2022-12-28T07:46:22;19.52;;;12.00;;
76900;SDS011;65859;43.020;25.096;2022-12-28T07:48:51;30.27;;;14.32;;
76900;SDS011;65859;43.020;25.096;2022-12-28T07:51:19;24.15;;;14.07;;
76900;SDS011;65859;43.020;25.096;2022-12-28T07:54:04;29.52;;;15.68;;
76900;SDS011;65859;43.020;25.096;2022-12-28T07:56:31;25.58;;;13.45;;
76900;SDS011;65859;43.020;25.096;2022-12-28T07:58:59;23.58;;;13.70;;
76900;SDS011;65859;43.020;25.096;2022-12-28T08:01:28;17.38;;;8.38;;
76900;SDS011;65859;43.020;25.096;2022-12-28T08:03:57;13.85;;;7.00;;
76900;SDS011;65859;43.020;25.096;2022-12-28T08:06:25;13.68;;;5.25;;
76900;SDS011;65859;43.020;25.096;2022-12-28T08:08:54;12.38;;;8.02;;
76900;SDS011;65859;43.020;25.096;2022-12-28T08:11:24;8.40;;;5.18;;
76900;SDS011;65859;43.020;25.096;2022-12-28T08:13:54;8.55;;;5.00;;
76900;SDS011;65859;43.020;25.096;2022-12-28T08:16:21;8.15;;;5.60;;
76900;SDS011;65859;43.020;25.096;2022-12-28T08:18:48;9.45;;;4.80;;
76900;SDS011;65859;43.020;25.096;2022-12-28T08:21:19;7.45;;;4.60;;
76900;SDS011;65859;43.020;25.096;2022-12-28T08:23:50;6.75;;;5.10;;
76900;SDS011;65859;43.020;25.096;2022-12-28T08:26:18;18.85;;;9.73;;
76900;SDS011;65859;43.020;25.096;2022-12-28T08:28:46;11.48;;;7.60;;
76900;SDS011;65859;43.020;25.096;2022-12-28T08:31:15;15.05;;;10.40;;
76900;SDS011;65859;43.020;25.096;2022-12-28T08:33:45;10.07;;;6.38;;
76900;SDS011;65859;43.020;25.096;2022-12-28T08:36:12;14.68;;;7.93;;
76900;SDS011;65859;43.020;25.096;2022-12-28T08:38:39;29.65;;;19.75;;
76900;SDS011;65859;43.020;25.096;2022-12-28T08:41:06;31.73;;;21.40;;
76900;SDS011;65859;43.020;25.096;2022-12-28T08:43:35;23.63;;;16.48;;
76900;SDS011;65859;43.020;25.096;2022-12-28T08:46:03;18.30;;;13.05;;
76900;SDS011;65859;43.020;25.096;2022-12-28T08:48:35;18.80;;;12.15;;
76900;SDS011;65859;43.020;25.096;2022-12-28T08:51:02;13.68;;;9.32;;
76900;SDS011;65859;43.020;25.096;2022-12-28T08:53:37;14.63;;;8.77;;
76900;SDS011;65859;43.020;25.096;2022-12-28T08:56:04;12.45;;;6.80;;
76900;SDS011;65859;43.020;25.096;2022-12-28T08:58:36;10.65;;;7.00;;
76900;SDS011;65859;43.020;25.096;2022-12-28T09:01:10;25.35;;;14.98;;
76900;SDS011;65859;43.020;25.096;2022-12-28T09:03:38;12.50;;;7.40;;
76900;SDS011;65859;43.020;25.096;2022-12-28T09:06:06;12.73;;;10.73;;
76900;SDS011;65859;43.020;25.096;2022-12-28T09:08:35;14.93;;;11.00;;
76900;SDS011;65859;43.020;25.096;2022-12-28T09:11:02;13.70;;;9.20;;
76900;SDS011;65859;43.020;25.096;2022-12-28T09:13:30;8.35;;;6.93;;
76900;SDS011;65859;43.020;25.096;2022-12-28T09:15:58;7.65;;;5.60;;
76900;SDS011;65859;43.020;25.096;2022-12-28T09:18:27;4.90;;;3.78;;
76900;SDS011;65859;43.020;25.096;2022-12-28T09:20:54;10.02;;;3.95;;
76900;SDS011;65859;43.020;25.096;2022-12-28T09:23:20;5.05;;;2.72;;
76900;SDS011;65859;43.020;25.096;2022-12-28T09:25:47;6.40;;;3.15;;
76900;SDS011;65859;43.020;25.096;2022-12-28T09:28:13;5.35;;;2.88;;
76900;SDS011;65859;43.020;25.096;2022-12-28T09:30:40;4.70;;;3.15;;
76900;SDS011;65859;43.020;25.096;2022-12-28T09:33:06;5.43;;;3.72;;
76900;SDS011;65859;43.020;25.096;2022-12-28T09:35:54;6.75;;;3.65;;
76900;SDS011;65859;43.020;25.096;2022-12-28T09:38:22;3.65;;;2.50;;
76900;SDS011;65859;43.020;25.096;2022-12-28T09:40:49;4.22;;;2.22;;
76900;SDS011;65859;43.020;25.096;2022-12-28T09:43:15;10.32;;;4.50;;
76900;SDS011;65859;43.020;25.096;2022-12-28T09:45:43;4.82;;;3.20;;
76900;SDS011;65859;43.020;25.096;2022-12-28T09:48:12;4.38;;;2.78;;
76900;SDS011;65859;43.020;25.096;2022-12-28T09:50:42;3.20;;;2.80;;
76900;SDS011;65859;43.020;25.096;2022-12-28T09:53:20;6.25;;;2.42;;
76900;SDS011;65859;43.020;25.096;2022-12-28T09:55:57;6.05;;;2.88;;
76900;SDS011;65859;43.020;25.096;2022-12-28T09:58:25;5.03;;;3.47;;
76900;SDS011;65859;43.020;25.096;2022-12-28T10:00:54;3.55;;;2.88;;
76900;SDS011;65859;43.020;25.096;2022-12-28T10:03:23;5.07;;;3.70;;
76900;SDS011;65859;43.020;25.096;2022-12-28T10:05:56;10.82;;;6.65;;
76900;SDS011;65859;43.020;25.096;2022-12-28T10:08:23;11.32;;;5.75;;
76900;SDS011;65859;43.020;25.096;2022-12-28T10:10:52;5.88;;;4.20;;
76900;SDS011;65859;43.020;25.096;2022-12-28T10:13:24;9.90;;;3.72;;
76900;SDS011;65859;43.020;25.096;2022-12-28T10:15:55;7.63;;;4.43;;
76900;SDS011;65859;43.020;25.096;2022-12-28T10:18:24;13.60;;;5.55;;
76900;SDS011;65859;43.020;25.096;2022-12-28T10:20:53;6.60;;;5.30;;
76900;SDS011;65859;43.020;25.096;2022-12-28T10:23:22;7.28;;;4.07;;
76900;SDS011;65859;43.020;25.096;2022-12-28T10:25:54;4.95;;;3.78;;
76900;SDS011;65859;43.020;25.096;2022-12-28T10:28:23;7.05;;;4.10;;
76900;SDS011;65859;43.020;25.096;2022-12-28T10:31:04;4.47;;;3.33;;
76900;SDS011;65859;43.020;25.096;2022-12-28T10:33:37;4.90;;;2.67;;
76900;SDS011;65859;43.020;25.096;2022-12-28T10:36:08;8.05;;;3.80;;
76900;SDS011;65859;43.020;25.096;2022-12-28T10:38:37;5.32;;;3.67;;
76900;SDS011;65859;43.020;25.096;2022-12-28T10:41:10;7.28;;;3.30;;
76900;SDS011;65859;43.020;25.096;2022-12-28T10:43:41;8.20;;;3.92;;
76900;SDS011;65859;43.020;25.096;2022-12-28T10:46:14;5.65;;;4.28;;
76900;SDS011;65859;43.020;25.096;2022-12-28T10:48:46;14.63;;;7.88;;
76900;SDS011;65859;43.020;25.096;2022-12-28T10:51:21;11.40;;;6.90;;
76900;SDS011;65859;43.020;25.096;2022-12-28T10:53:53;12.20;;;6.78;;
76900;SDS011;65859;43.020;25.096;2022-12-28T10:56:22;16.63;;;11.30;;
76900;SDS011;65859;43.020;25.096;2022-12-28T10:59:18;14.73;;;8.10;;
76900;SDS011;65859;43.020;25.096;2022-12-28T11:01:52;11.30;;;5.22;;
76900;SDS011;65859;43.020;25.096;2022-12-28T11:04:23;10.90;;;3.90;;
76900;SDS011;65859;43.020;25.096;2022-12-28T11:06:55;9.02;;;3.20;;
76900;SDS011;65859;43.020;25.096;2022-12-28T11:09:26;3.50;;;2.10;;
76900;SDS011;65859;43.020;25.096;2022-12-28T11:11:55;3.95;;;2.33;;
76900;SDS011;65859;43.020;25.096;2022-12-28T11:14:41;6.50;;;3.70;;
76900;SDS011;65859;43.020;25.096;2022-12-28T11:17:24;16.67;;;4.85;;
76900;SDS011;65859;43.020;25.096;2022-12-28T11:22:58;5.35;;;3.80;;
76900;SDS011;65859;43.020;25.096;2022-12-28T11:25:28;6.38;;;3.20;;
76900;SDS011;65859;43.020;25.096;2022-12-28T11:27:56;9.98;;;3.50;;
76900;SDS011;65859;43.020;25.096;2022-12-28T11:30:23;11.65;;;4.45;;
76900;SDS011;65859;43.020;25.096;2022-12-28T11:32:54;10.82;;;5.78;;
76900;SDS011;65859;43.020;25.096;2022-12-28T11:35:32;9.95;;;5.65;;
76900;SDS011;65859;43.020;25.096;2022-12-28T11:38:03;4.68;;;2.30;;
76900;SDS011;65859;43.020;25.096;2022-12-28T11:40:44;9.10;;;4.28;;
76900;SDS011;65859;43.020;25.096;2022-12-28T11:45:58;7.68;;;2.38;;
76900;SDS011;65859;43.020;25.096;2022-12-28T11:48:44;11.57;;;7.90;;
76900;SDS011;65859;43.020;25.096;2022-12-28T11:51:28;11.55;;;4.07;;
76900;SDS011;65859;43.020;25.096;2022-12-28T11:54:02;11.40;;;2.92;;
76900;SDS011;65859;43.020;25.096;2022-12-28T11:59:23;6.15;;;2.13;;
76900;SDS011;65859;43.020;25.096;2022-12-28T12:01:54;3.50;;;2.40;;
76900;SDS011;65859;43.020;25.096;2022-12-28T12:04:49;2.13;;;1.77;;
76900;SDS011;65859;43.020;25.096;2022-12-28T12:09:45;6.53;;;2.33;;
76900;SDS011;65859;43.020;25.096;2022-12-28T12:14:41;8.40;;;2.85;;
76900;SDS011;65859;43.020;25.096;2022-12-28T12:17:23;7.32;;;2.95;;
76900;SDS011;65859;43.020;25.096;2022-12-28T12:20:02;7.47;;;2.92;;
76900;SDS011;65859;43.020;25.096;2022-12-28T12:22:47;7.78;;;3.97;;
76900;SDS011;65859;43.020;25.096;2022-12-28T12:30:54;7.68;;;2.55;;
76900;SDS011;65859;43.020;25.096;2022-12-28T12:33:25;8.93;;;4.20;;
76900;SDS011;65859;43.020;25.096;2022-12-28T12:48:08;5.35;;;2.53;;
76900;SDS011;65859;43.020;25.096;2022-12-28T12:50:19;6.60;;;2.95;;
76900;SDS011;65859;43.020;25.096;2022-12-28T12:53:18;6.32;;;2.78;;
76900;SDS011;65859;43.020;25.096;2022-12-28T12:56:03;7.65;;;2.33;;
76900;SDS011;65859;43.020;25.096;2022-12-28T13:04:44;6.10;;;2.00;;
76900;SDS011;65859;43.020;25.096;2022-12-28T13:07:19;2.70;;;1.90;;
76900;SDS011;65859;43.020;25.096;2022-12-28T13:09:49;7.50;;;2.40;;
76900;SDS011;65859;43.020;25.096;2022-12-28T13:12:18;6.88;;;2.58;;
76900;SDS011;65859;43.020;25.096;2022-12-28T13:14:45;3.17;;;2.30;;
76900;SDS011;65859;43.020;25.096;2022-12-28T13:17:16;4.80;;;2.20;;
76900;SDS011;65859;43.020;25.096;2022-12-28T13:19:46;20.92;;;8.38;;
76900;SDS011;65859;43.020;25.096;2022-12-28T13:22:32;19.23;;;9.70;;
76900;SDS011;65859;43.020;25.096;2022-12-28T13:24:58;18.10;;;7.65;;
76900;SDS011;65859;43.020;25.096;2022-12-28T13:27:30;8.65;;;4.57;;
76900;SDS011;65859;43.020;25.096;2022-12-28T13:30:03;5.07;;;3.15;;
76900;SDS011;65859;43.020;25.096;2022-12-28T13:32:47;6.82;;;4.22;;
76900;SDS011;65859;43.020;25.096;2022-12-28T13:35:26;8.15;;;4.47;;
76900;SDS011;65859;43.020;25.096;2022-12-28T13:40:36;5.90;;;3.55;;
76900;SDS011;65859;43.020;25.096;2022-12-28T13:45:50;23.88;;;10.13;;
76900;SDS011;65859;43.020;25.096;2022-12-28T13:48:32;26.65;;;12.32;;
76900;SDS011;65859;43.020;25.096;2022-12-28T13:51:02;43.05;;;24.88;;
76900;SDS011;65859;43.020;25.096;2022-12-28T13:53:32;64.53;;;35.65;;
76900;SDS011;65859;43.020;25.096;2022-12-28T13:56:00;45.58;;;26.13;;
76900;SDS011;65859;43.020;25.096;2022-12-28T13:58:35;26.42;;;12.90;;
76900;SDS011;65859;43.020;25.096;2022-12-28T14:01:23;23.95;;;10.75;;
76900;SDS011;65859;43.020;25.096;2022-12-28T14:03:56;20.83;;;11.65;;
76900;SDS011;65859;43.020;25.096;2022-12-28T14:06:25;28.73;;;16.23;;
76900;SDS011;65859;43.020;25.096;2022-12-28T14:08:52;32.50;;;20.15;;
76900;SDS011;65859;43.020;25.096;2022-12-28T14:11:19;30.63;;;19.40;;
76900;SDS011;65859;43.020;25.096;2022-12-28T14:13:46;24.85;;;13.07;;
76900;SDS011;65859;43.020;25.096;2022-12-28T14:16:13;25.95;;;16.33;;
76900;SDS011;65859;43.020;25.096;2022-12-28T14:18:40;37.58;;;22.15;;
76900;SDS011;65859;43.020;25.096;2022-12-28T14:21:07;35.25;;;21.35;;
76900;SDS011;65859;43.020;25.096;2022-12-28T14:23:34;39.13;;;25.10;;
76900;SDS011;65859;43.020;25.096;2022-12-28T14:26:03;34.50;;;20.30;;
76900;SDS011;65859;43.020;25.096;2022-12-28T14:31:02;31.55;;;17.90;;
76900;SDS011;65859;43.020;25.096;2022-12-28T14:33:32;27.75;;;18.55;;
76900;SDS011;65859;43.020;25.096;2022-12-28T14:36:04;33.25;;;20.90;;
76900;SDS011;65859;43.020;25.096;2022-12-28T14:38:33;29.02;;;18.80;;
76900;SDS011;65859;43.020;25.096;2022-12-28T14:41:03;27.90;;;17.23;;
76900;SDS011;65859;43.020;25.096;2022-12-28T14:43:31;32.30;;;18.73;;
76900;SDS011;65859;43.020;25.096;2022-12-28T14:46:16;31.88;;;19.20;;
76900;SDS011;65859;43.020;25.096;2022-12-28T14:48:57;32.08;;;19.23;;
76900;SDS011;65859;43.020;25.096;2022-12-28T14:51:29;33.67;;;18.00;;
76900;SDS011;65859;43.020;25.096;2022-12-28T14:56:53;42.75;;;28.38;;
76900;SDS011;65859;43.020;25.096;2022-12-28T14:59:27;41.30;;;25.50;;
76900;SDS011;65859;43.020;25.096;2022-12-28T15:02:00;44.78;;;24.95;;
76900;SDS011;65859;43.020;25.096;2022-12-28T15:04:34;55.45;;;27.60;;
76900;SDS011;65859;43.020;25.096;2022-12-28T15:07:06;70.70;;;35.13;;
76900;SDS011;65859;43.020;25.096;2022-12-28T15:09:34;52.97;;;28.90;;
76900;SDS011;65859;43.020;25.096;2022-12-28T15:14:34;142.95;;;89.80;;
76900;SDS011;65859;43.020;25.096;2022-12-28T15:17:01;47.70;;;34.00;;
76900;SDS011;65859;43.020;25.096;2022-12-28T15:19:28;35.30;;;20.33;;
76900;SDS011;65859;43.020;25.096;2022-12-28T15:21:54;36.80;;;24.73;;
76900;SDS011;65859;43.020;25.096;2022-12-28T15:24:20;28.85;;;19.77;;
76900;SDS011;65859;43.020;25.096;2022-12-28T15:26:47;22.48;;;13.52;;
76900;SDS011;65859;43.020;25.096;2022-12-28T15:29:13;22.02;;;14.80;;
76900;SDS011;65859;43.020;25.096;2022-12-28T15:31:41;27.88;;;16.80;;
76900;SDS011;65859;43.020;25.096;2022-12-28T15:34:07;33.97;;;18.77;;
76900;SDS011;65859;43.020;25.096;2022-12-28T15:36:34;60.83;;;36.80;;
76900;SDS011;65859;43.020;25.096;2022-12-28T15:39:00;76.18;;;45.42;;
76900;SDS011;65859;43.020;25.096;2022-12-28T15:41:27;78.43;;;44.13;;
76900;SDS011;65859;43.020;25.096;2022-12-28T15:44:16;80.55;;;46.92;;
76900;SDS011;65859;43.020;25.096;2022-12-28T15:46:47;80.07;;;45.05;;
76900;SDS011;65859;43.020;25.096;2022-12-28T15:49:16;70.28;;;41.55;;
76900;SDS011;65859;43.020;25.096;2022-12-28T15:51:44;71.75;;;44.22;;
76900;SDS011;65859;43.020;25.096;2022-12-28T15:54:11;81.35;;;44.67;;
76900;SDS011;65859;43.020;25.096;2022-12-28T15:56:39;78.30;;;45.20;;
76900;SDS011;65859;43.020;25.096;2022-12-28T15:59:12;48.75;;;32.33;;
76900;SDS011;65859;43.020;25.096;2022-12-28T16:01:39;33.08;;;20.95;;